createdAt,value
2019-05-13T00:02:19.503Z,9.20
2019-05-13T00:04:48.814Z,9.14
2019-05-13T00:07:18.430Z,9.14
2019-05-13T00:09:47.840Z,9.09
2019-05-13T00:12:17.246Z,9.45
2019-05-13T00:14:46.622Z,9.09
2019-05-13T00:17:15.718Z,9.23
2019-05-13T00:19:44.918Z,8.77
2019-05-13T00:22:14.509Z,9.02
2019-05-13T00:24:44.432Z,8.85
2019-05-13T00:27:14.155Z,9.01
2019-05-13T00:29:44.366Z,8.89
2019-05-13T00:32:13.562Z,8.67
2019-05-13T00:34:44.589Z,8.73
2019-05-13T00:37:14.644Z,8.61
2019-05-13T00:39:44.285Z,8.55
2019-05-13T00:42:14.276Z,8.61
2019-05-13T00:44:44.336Z,8.61
2019-05-13T00:47:13.360Z,8.65
2019-05-13T00:49:43.715Z,8.67
2019-05-13T00:52:14.275Z,8.54
2019-05-13T00:54:44.159Z,8.35
2019-05-13T00:57:13.416Z,8.55
2019-05-13T00:59:44.382Z,8.45
2019-05-13T01:02:13.958Z,8.54
2019-05-13T01:04:44.212Z,8.37
2019-05-13T01:07:25.140Z,8.61
2019-05-13T01:09:44.342Z,8.43
2019-05-13T01:12:13.484Z,8.55
2019-05-13T01:14:43.191Z,8.39
2019-05-13T01:17:14.203Z,8.40
2019-05-13T01:19:43.362Z,8.49
2019-05-13T01:22:13.517Z,8.71
2019-05-13T01:24:44.306Z,8.63
2019-05-13T01:27:14.014Z,8.50
2019-05-13T01:29:43.576Z,8.61
2019-05-13T01:32:14.476Z,8.63
2019-05-13T01:34:44.360Z,8.59
2019-05-13T01:37:13.370Z,8.57
2019-05-13T01:39:43.709Z,8.63
2019-05-13T01:42:13.748Z,8.67
2019-05-13T01:44:44.484Z,8.61
2019-05-13T01:47:13.547Z,8.82
2019-05-13T01:49:43.999Z,8.69
2019-05-13T01:52:13.719Z,8.58
2019-05-13T01:54:44.269Z,8.58
2019-05-13T01:57:14.246Z,8.34
2019-05-13T01:59:43.602Z,8.37
2019-05-13T02:02:13.741Z,8.50
2019-05-13T02:04:43.932Z,8.47
2019-05-13T02:07:14.355Z,8.51
2019-05-13T02:09:44.309Z,8.33
2019-05-13T02:12:13.532Z,8.25
2019-05-13T02:14:44.282Z,8.49
2019-05-13T02:17:14.588Z,8.01
2019-05-13T02:19:44.233Z,8.11
2019-05-13T02:22:14.606Z,8.15
2019-05-13T02:24:44.703Z,8.25
2019-05-13T02:27:14.277Z,7.89
2019-05-13T02:29:43.719Z,7.90
2019-05-13T02:32:13.630Z,7.88
2019-05-13T02:34:43.948Z,7.89
2019-05-13T02:37:13.117Z,7.83
2019-05-13T02:39:42.734Z,8.13
2019-05-13T02:42:13.259Z,8.02
2019-05-13T02:44:43.721Z,7.93
2019-05-13T02:47:12.771Z,8.11
2019-05-13T02:49:43.086Z,8.05
2019-05-13T02:52:13.449Z,7.88
2019-05-13T02:54:42.783Z,8.10
2019-05-13T02:57:12.649Z,8.17
2019-05-13T02:59:43.166Z,7.91
2019-05-13T03:02:12.564Z,7.91
2019-05-13T03:04:43.633Z,7.89
2019-05-13T03:07:12.608Z,8.00
2019-05-13T03:09:42.295Z,7.72
2019-05-13T03:12:12.993Z,7.65
2019-05-13T03:14:47.903Z,7.65
2019-05-13T03:17:14.825Z,7.62
2019-05-13T03:19:45.258Z,7.77
2019-05-13T03:22:14.151Z,7.74
2019-05-13T03:24:43.220Z,7.65
2019-05-13T03:27:12.951Z,7.81
2019-05-13T03:29:43.236Z,7.87
2019-05-13T03:34:45.461Z,7.54
2019-05-13T03:37:15.283Z,7.78
2019-05-13T03:39:45.427Z,7.49
2019-05-13T03:42:14.414Z,7.31
2019-05-13T03:44:45.108Z,7.60
2019-05-13T03:47:14.129Z,7.55
2019-05-13T03:49:44.707Z,7.42
2019-05-13T03:52:13.733Z,7.46
2019-05-13T03:54:43.631Z,7.62
2019-05-13T03:57:12.810Z,7.15
2019-05-13T03:59:43.708Z,7.34
2019-05-13T04:02:13.090Z,7.52
2019-05-13T04:04:42.519Z,7.50
2019-05-13T04:07:13.191Z,7.39
2019-05-13T04:09:42.624Z,7.51
2019-05-13T04:12:13.384Z,7.23
2019-05-13T04:14:42.801Z,7.37
2019-05-13T04:17:12.738Z,7.44
2019-05-13T04:19:42.497Z,7.57
2019-05-13T04:22:13.102Z,7.31
2019-05-13T04:24:42.829Z,7.35
2019-05-13T04:27:13.321Z,7.33
2019-05-13T04:29:43.318Z,7.60
2019-05-13T04:32:13.212Z,7.69
2019-05-13T04:34:42.621Z,7.58
2019-05-13T04:37:13.480Z,7.37
2019-05-13T04:39:50.981Z,7.46
2019-05-13T04:42:13.400Z,7.49
2019-05-13T04:44:42.978Z,7.33
2019-05-13T04:47:12.774Z,7.23
2019-05-13T04:49:42.840Z,7.31
2019-05-13T04:52:13.452Z,7.20
2019-05-13T04:54:43.738Z,7.48
2019-05-13T04:57:13.070Z,7.60
2019-05-13T04:59:44.502Z,7.47
2019-05-13T05:02:38.163Z,7.64
2019-05-13T05:05:07.768Z,7.26
2019-05-13T05:08:08.097Z,7.56
2019-05-13T05:11:13.379Z,7.43
2019-05-13T05:13:53.076Z,7.41
2019-05-13T05:16:52.401Z,7.55
2019-05-13T05:19:33.597Z,7.71
2019-05-13T05:22:36.799Z,7.88
2019-05-13T05:25:22.094Z,7.76
2019-05-13T05:28:03.145Z,7.84
2019-05-13T05:30:37.888Z,7.91
2019-05-13T05:33:12.204Z,8.16
2019-05-13T05:36:21.810Z,8.09
2019-05-13T05:39:22.619Z,8.28
2019-05-13T18:56:26.253Z,12.75
2019-05-13T18:58:55.224Z,12.64
2019-05-13T19:02:08.067Z,12.55
2019-05-13T19:06:31.727Z,12.19
2019-05-13T19:20:47.491Z,12.27
2019-05-13T19:23:17.229Z,11.83
2019-05-13T19:30:41.145Z,11.83
2019-05-13T19:33:12.121Z,12.68
2019-05-13T19:35:42.635Z,12.07
2019-05-13T19:38:12.329Z,12.07
2019-05-13T19:40:41.905Z,11.96
2019-05-13T19:43:11.797Z,11.80
2019-05-13T19:45:41.610Z,11.85
2019-05-13T19:48:11.991Z,11.86
2019-05-13T19:50:41.668Z,11.90
2019-05-13T19:53:12.125Z,11.50
2019-05-13T19:55:41.636Z,11.79
2019-05-13T19:58:12.426Z,11.61
2019-05-13T20:00:42.456Z,11.81
2019-05-13T20:03:12.109Z,11.64
2019-05-13T20:05:41.587Z,11.57
2019-05-13T20:08:11.169Z,11.41
2019-05-13T20:10:42.175Z,11.41
2019-05-13T20:13:11.328Z,11.58
2019-05-13T20:15:41.310Z,11.12
2019-05-13T20:18:12.170Z,11.30
2019-05-13T20:20:41.355Z,11.22
2019-05-13T20:23:12.103Z,11.38
2019-05-13T20:25:41.743Z,11.15
2019-05-13T20:28:11.752Z,11.36
2019-05-13T20:30:42.131Z,11.34
2019-05-13T20:33:12.497Z,11.18
2019-05-13T20:35:42.107Z,11.00
2019-05-13T20:38:12.020Z,11.34
2019-05-13T20:40:41.491Z,10.92
2019-05-13T20:43:11.921Z,11.15
2019-05-13T20:45:45.147Z,11.06
2019-05-13T20:48:14.047Z,11.16
2019-05-13T20:50:42.928Z,11.08
2019-05-13T20:53:12.750Z,11.15
2019-05-13T20:55:41.920Z,11.08
2019-05-13T20:58:12.773Z,11.09
2019-05-13T21:00:42.314Z,10.89
2019-05-13T21:03:12.014Z,11.12
2019-05-13T21:05:42.121Z,11.07
2019-05-13T21:08:12.130Z,10.82
2019-05-13T21:10:42.132Z,10.73
2019-05-13T21:13:12.295Z,10.81
2019-05-13T21:15:42.439Z,10.81
2019-05-13T21:18:12.506Z,10.74
2019-05-13T21:20:41.397Z,10.76
2019-05-13T21:23:11.475Z,10.72
2019-05-13T21:25:41.804Z,10.75
2019-05-13T21:28:11.758Z,10.25
2019-05-13T21:30:42.056Z,10.45
2019-05-13T21:33:11.659Z,10.55
2019-05-13T21:35:41.912Z,10.61
2019-05-13T21:38:12.636Z,10.54
2019-05-13T21:40:41.765Z,10.42
2019-05-13T21:43:10.840Z,10.57
2019-05-13T21:45:41.507Z,10.15
2019-05-13T21:48:11.389Z,10.06
2019-05-13T21:50:41.450Z,10.42
2019-05-13T21:53:12.753Z,10.25
2019-05-13T21:55:41.546Z,10.22
2019-05-13T21:58:14.054Z,10.31
2019-05-13T22:00:46.189Z,10.26
2019-05-13T22:03:15.077Z,10.39
2019-05-13T22:05:43.969Z,10.30
2019-05-13T22:08:12.860Z,10.46
2019-05-13T22:10:41.769Z,10.50
2019-05-13T22:13:11.983Z,10.18
2019-05-13T22:15:41.598Z,10.09
2019-05-13T22:18:11.346Z,10.15
2019-05-13T22:20:49.758Z,10.14
2019-05-13T22:23:12.554Z,10.05
2019-05-13T22:25:43.648Z,10.12
2019-05-13T22:28:12.280Z,10.17
2019-05-13T22:30:41.394Z,9.93
2019-05-13T22:33:12.281Z,10.06
2019-05-13T22:35:41.744Z,9.96
2019-05-13T22:38:12.231Z,10.11
2019-05-13T22:40:42.000Z,9.97
2019-05-13T22:43:12.298Z,9.99
2019-05-13T22:45:41.927Z,9.93
2019-05-13T22:48:14.762Z,10.08
2019-05-13T22:50:43.227Z,10.09
2019-05-13T22:53:12.460Z,10.09
2019-05-13T22:55:41.958Z,10.20
2019-05-13T22:58:11.160Z,9.98
2019-05-13T23:00:42.274Z,9.85
2019-05-13T23:03:11.307Z,9.73
2019-05-13T23:05:41.643Z,9.84
2019-05-13T23:08:12.323Z,9.91
2019-05-13T23:10:42.085Z,9.80
2019-05-13T23:13:11.691Z,9.89
2019-05-13T23:15:40.565Z,9.96
2019-05-13T23:18:11.756Z,9.89
2019-05-13T23:20:41.102Z,9.97
2019-05-13T23:23:11.794Z,9.74
2019-05-13T23:25:43.224Z,9.91
2019-05-13T23:28:12.907Z,9.87
2019-05-13T23:30:41.883Z,9.88
2019-05-13T23:33:11.847Z,9.90
2019-05-13T23:35:41.776Z,10.12
2019-05-13T23:38:11.342Z,9.87
2019-05-13T23:40:42.090Z,10.05
2019-05-13T23:43:11.781Z,9.68
2019-05-13T23:45:41.740Z,9.90
2019-05-13T23:48:11.203Z,9.96
2019-05-13T23:50:41.487Z,9.71
2019-05-13T23:53:11.749Z,9.72
2019-05-13T23:55:41.426Z,9.56
2019-05-13T23:58:12.213Z,9.67
